Time;durP1;ratioP1;P1;durP2;ratioP2;P2;SDS_P1;SDS_P2;PMS_P1;PMS_P2;Temp;Humidity;BMP_temperature;BMP_pressure;BME280_temperature;BME280_humidity;BME280_pressure;Samples;Min_cycle;Max_cycle;Signal;HPM_P1;HPM_P2
2023/01/24 00:00:42;;;;;;;7.10;5.40;;;;;;;6.07;100.00;95552.19;6301388;22;20631;-79
2023/01/24 00:03:11;;;;;;;8.87;5.53;;;;;;;6.16;100.00;95564.09;6299919;22;20510;-79
2023/01/24 00:05:39;;;;;;;8.83;5.33;;;;;;;6.17;100.00;95560.53;6299451;22;20172;-78
2023/01/24 00:08:07;;;;;;;8.67;5.70;;;;;;;6.16;100.00;95561.50;6298248;22;20164;-79
2023/01/24 00:10:34;;;;;;;9.30;5.10;;;;;;;6.06;100.00;95560.91;6299707;22;20172;-78
2023/01/24 00:13:01;;;;;;;9.80;5.30;;;;;;;6.02;100.00;95560.44;6301544;22;20168;-79
2023/01/24 00:15:27;;;;;;;9.07;5.80;;;;;;;6.07;100.00;95571.06;6299125;22;20211;-79
2023/01/24 00:17:55;;;;;;;8.80;5.37;;;;;;;6.08;100.00;95557.19;6300024;22;20232;-85
2023/01/24 00:20:21;;;;;;;9.10;5.90;;;;;;;6.21;100.00;95562.63;6302945;22;20168;-85
2023/01/24 00:22:48;;;;;;;9.73;5.90;;;;;;;6.07;100.00;95565.91;6302138;22;20171;-84
2023/01/24 00:25:16;;;;;;;7.90;5.53;;;;;;;5.99;100.00;95565.13;6301835;22;20225;-85
2023/01/24 00:27:43;;;;;;;9.13;5.53;;;;;;;5.74;100.00;95554.84;6305891;22;20196;-86
2023/01/24 00:30:11;;;;;;;7.53;5.30;;;;;;;5.75;100.00;95558.25;6301951;22;20228;-86
2023/01/24 00:32:39;;;;;;;8.57;5.33;;;;;;;5.89;100.00;95572.28;6301716;22;20228;-85
2023/01/24 00:35:06;;;;;;;7.90;5.10;;;;;;;5.93;100.00;95576.09;6303346;22;20188;-86
2023/01/24 00:37:33;;;;;;;7.50;5.43;;;;;;;5.78;100.00;95567.41;6302288;22;20171;-85
2023/01/24 00:40:00;;;;;;;8.30;5.30;;;;;;;5.83;100.00;95578.06;6306225;22;20168;-91
2023/01/24 00:42:28;;;;;;;7.90;5.40;;;;;;;5.88;100.00;95575.81;6305992;22;20171;-89
2023/01/24 00:44:55;;;;;;;9.47;5.53;;;;;;;5.92;100.00;95574.50;6304955;22;20682;-92
2023/01/24 00:47:22;;;;;;;8.67;5.17;;;;;;;5.97;100.00;95585.94;6306100;22;20226;-92
2023/01/24 00:49:49;;;;;;;7.37;5.20;;;;;;;5.98;100.00;95573.81;6302455;22;20168;-89
2023/01/24 00:52:16;;;;;;;9.10;5.13;;;;;;;6.05;100.00;95579.94;6274598;22;20221;-79
2023/01/24 00:54:43;;;;;;;7.13;4.97;;;;;;;6.09;100.00;95579.44;6299624;22;20199;-79
2023/01/24 00:57:09;;;;;;;8.13;5.30;;;;;;;6.12;100.00;95584.25;6300279;22;20178;-79
2023/01/24 00:59:38;;;;;;;7.80;5.10;;;;;;;6.04;100.00;95586.06;6299181;22;20176;-78
2023/01/24 01:02:06;;;;;;;7.00;4.93;;;;;;;6.05;100.00;95583.34;6297908;22;20176;-79
2023/01/24 01:04:33;;;;;;;7.60;5.20;;;;;;;6.00;100.00;95580.44;6300096;22;20545;-79
2023/01/24 01:07:00;;;;;;;6.33;4.80;;;;;;;5.99;100.00;95588.34;6299635;22;20557;-79
2023/01/24 01:09:27;;;;;;;11.40;5.77;;;;;;;5.83;100.00;95585.78;6298442;22;20174;-79
2023/01/24 01:11:54;;;;;;;9.23;5.23;;;;;;;5.88;100.00;95586.13;6299234;22;20168;-79
2023/01/24 01:14:20;;;;;;;8.93;5.27;;;;;;;5.83;100.00;95580.63;6299860;22;20214;-79
2023/01/24 01:16:49;;;;;;;7.37;5.07;;;;;;;5.79;100.00;95579.34;6297790;22;20195;-79
2023/01/24 01:19:15;;;;;;;7.83;5.07;;;;;;;5.73;100.00;95580.81;6299495;22;20167;-79
2023/01/24 01:21:44;;;;;;;8.03;5.33;;;;;;;5.69;100.00;95592.41;6299529;22;20178;-79
2023/01/24 01:24:11;;;;;;;9.63;5.50;;;;;;;5.68;100.00;95581.28;6298578;22;20236;-79
2023/01/24 01:26:38;;;;;;;9.23;5.23;;;;;;;5.72;100.00;95587.75;6298602;22;20175;-79
2023/01/24 01:29:04;;;;;;;8.83;5.53;;;;;;;5.64;100.00;95590.34;6301261;22;20178;-79
2023/01/24 01:31:31;;;;;;;7.53;5.10;;;;;;;5.60;100.00;95589.06;6299545;22;20163;-80
2023/01/24 01:33:59;;;;;;;7.80;5.03;;;;;;;5.57;100.00;95573.91;6302236;22;20218;-78
2023/01/24 01:36:26;;;;;;;7.80;5.57;;;;;;;5.55;100.00;95581.00;6302061;22;20220;-78
2023/01/24 01:38:53;;;;;;;9.90;5.90;;;;;;;5.55;100.00;95581.00;6300548;22;20900;-79
2023/01/24 01:41:20;;;;;;;9.07;6.07;;;;;;;5.65;100.00;95581.66;6302808;22;20604;-80
2023/01/24 01:46:38;;;;;;;9.83;6.07;;;;;;;5.68;100.00;95580.50;6237967;22;20174;-80
2023/01/24 01:49:10;;;;;;;10.50;6.20;;;;;;;5.69;100.00;95580.34;6300911;22;20163;-78
2023/01/24 01:51:45;;;;;;;8.80;5.57;;;;;;;5.78;100.00;95575.97;6303798;22;20268;-79
2023/01/24 01:54:15;;;;;;;10.30;5.90;;;;;;;5.72;100.00;95582.59;6301609;22;20958;-79
2023/01/24 01:56:46;;;;;;;10.20;6.10;;;;;;;5.73;100.00;95583.41;6301157;22;20180;-79
2023/01/24 01:59:17;;;;;;;10.03;6.70;;;;;;;5.81;100.00;95577.41;6303901;22;20160;-86
2023/01/24 02:01:46;;;;;;;10.30;6.67;;;;;;;5.81;100.00;95580.78;6303249;22;20159;-86
2023/01/24 02:04:18;;;;;;;9.83;6.60;;;;;;;5.83;100.00;95580.63;6304766;22;20172;-86
2023/01/24 02:06:51;;;;;;;11.30;6.63;;;;;;;5.71;100.00;95569.88;6302973;22;20506;-87
2023/01/24 02:09:23;;;;;;;9.93;5.90;;;;;;;5.70;100.00;95571.66;6302918;22;20191;-87
2023/01/24 02:11:52;;;;;;;11.13;6.40;;;;;;;5.68;100.00;95581.28;6301571;22;20168;-86
2023/01/24 02:17:06;;;;;;;9.13;5.67;;;;;;;5.89;100.00;95575.63;6305381;22;20332;-89
2023/01/24 02:20:03;;;;;;;8.77;5.53;;;;;;;5.80;100.00;95574.00;6303416;22;20179;-85
2023/01/24 02:22:38;;;;;;;9.57;5.43;;;;;;;5.53;100.00;95552.03;6301933;22;20159;-86
2023/01/24 02:25:14;;;;;;;14.03;5.87;;;;;;;5.66;100.00;95566.97;6304189;22;20221;-84
2023/01/24 02:27:43;;;;;;;9.77;5.77;;;;;;;5.71;100.00;95578.38;6303126;22;20163;-86
2023/01/24 02:30:11;;;;;;;8.03;5.20;;;;;;;5.76;100.00;95577.09;6303228;22;20570;-87
2023/01/24 02:32:38;;;;;;;8.23;5.43;;;;;;;5.54;100.00;95569.09;6302658;22;20245;-86
2023/01/24 02:35:05;;;;;;;7.53;5.20;;;;;;;5.55;100.00;95580.19;6303141;22;20223;-87
2023/01/24 02:37:33;;;;;;;7.67;5.27;;;;;;;5.57;100.00;95578.28;6302614;22;20167;-90
2023/01/24 02:40:05;;;;;;;9.50;5.70;;;;;;;5.57;100.00;95573.13;6301634;22;20166;-79
2023/01/24 02:42:35;;;;;;;8.90;5.40;;;;;;;5.52;100.00;95572.78;6301210;22;20159;-79
2023/01/24 02:45:10;;;;;;;8.77;5.13;;;;;;;5.43;100.00;95577.16;6299631;22;20171;-79
2023/01/24 02:47:41;;;;;;;9.70;5.27;;;;;;;5.44;100.00;95575.38;6299930;22;20232;-79
2023/01/24 02:50:09;;;;;;;7.93;5.33;;;;;;;5.51;100.00;95582.28;6300702;22;20186;-79
2023/01/24 02:55:19;;;;;;;6.97;4.63;;;;;;;5.51;100.00;95569.41;6220101;22;20280;-77
2023/01/24 03:00:32;;;;;;;8.17;5.20;;;;;;;5.62;100.00;95576.00;6300153;22;20167;-78
2023/01/24 03:02:59;;;;;;;11.20;5.37;;;;;;;5.69;100.00;95566.63;6299456;22;20168;-78
2023/01/24 03:05:39;;;;;;;8.37;5.13;;;;;;;5.68;100.00;95573.56;6301151;22;20168;-78
2023/01/24 03:08:07;;;;;;;8.47;5.20;;;;;;;5.54;100.00;95563.94;6300761;22;20174;-79
2023/01/24 03:10:34;;;;;;;6.17;4.60;;;;;;;5.47;100.00;95570.72;6299865;22;20658;-78
2023/01/24 03:34:58;;;;;;;6.53;4.63;;;;;;;5.13;100.00;95552.88;6243565;23;20259;-90
2023/01/24 03:40:13;;;;;;;6.47;4.60;;;;;;;5.12;100.00;95560.75;6244048;23;20235;-90
2023/01/24 03:42:47;;;;;;;5.07;4.13;;;;;;;5.19;100.00;95561.75;6246318;23;20173;-90
2023/01/24 03:45:17;;;;;;;6.13;4.40;;;;;;;5.17;100.00;95561.09;6253679;23;20157;-90
2023/01/24 03:48:04;;;;;;;6.30;4.70;;;;;;;5.22;100.00;95558.84;6246125;23;20189;-90
2023/01/24 03:53:19;;;;;;;5.97;4.33;;;;;;;5.07;100.00;95542.44;6245330;23;20211;-89
2023/01/24 03:55:46;;;;;;;6.47;4.50;;;;;;;5.11;100.00;95551.41;6243711;23;20192;-89
2023/01/24 03:58:14;;;;;;;5.90;4.30;;;;;;;5.08;100.00;95556.88;6244556;23;20168;-92
2023/01/24 04:00:41;;;;;;;5.97;4.50;;;;;;;4.96;100.00;95550.47;6242583;22;20170;-80
2023/01/24 04:03:09;;;;;;;6.57;4.73;;;;;;;5.04;100.00;95548.72;6239242;22;20175;-79
2023/01/24 04:05:37;;;;;;;6.17;4.77;;;;;;;4.97;100.00;95541.78;6237248;23;20176;-79
2023/01/24 04:08:04;;;;;;;7.23;5.00;;;;;;;4.93;100.00;95535.34;6238416;23;20168;-79
2023/01/24 04:10:31;;;;;;;7.60;5.00;;;;;;;4.94;100.00;95550.63;6238616;23;20201;-79
2023/01/24 04:12:58;;;;;;;6.93;5.00;;;;;;;4.96;100.00;95532.44;6235611;23;20642;-79
2023/01/24 04:15:27;;;;;;;7.10;5.03;;;;;;;4.91;100.00;95540.66;6237384;22;20748;-79
2023/01/24 04:17:56;;;;;;;6.80;5.00;;;;;;;4.86;100.00;95553.22;6287001;22;20547;-79
2023/01/24 04:20:25;;;;;;;6.33;4.73;;;;;;;4.86;100.00;95547.25;6298685;22;20257;-79
2023/01/24 04:22:51;;;;;;;6.50;4.90;;;;;;;4.86;100.00;95552.41;6298330;22;20220;-78
2023/01/24 04:25:19;;;;;;;8.33;5.37;;;;;;;4.74;100.00;95540.78;6300573;22;20461;-80
2023/01/24 04:27:46;;;;;;;9.20;5.73;;;;;;;4.77;100.00;95553.34;6299777;22;20161;-79
2023/01/24 04:30:14;;;;;;;8.80;5.10;;;;;;;4.78;100.00;95553.22;6299558;22;20203;-79
2023/01/24 04:32:41;;;;;;;8.33;5.30;;;;;;;4.66;100.00;95536.47;6301642;22;20173;-81
2023/01/24 04:35:10;;;;;;;5.87;4.73;;;;;;;4.76;100.00;95549.97;6300647;22;20201;-81
2023/01/24 04:37:38;;;;;;;8.33;5.70;;;;;;;4.76;100.00;95547.41;6298661;22;20177;-79
2023/01/24 04:40:06;;;;;;;10.23;5.40;;;;;;;4.72;100.00;95550.47;6300643;22;20198;-79
2023/01/24 04:42:33;;;;;;;6.80;5.53;;;;;;;4.76;100.00;95555.13;6298763;22;20209;-79
2023/01/24 04:45:00;;;;;;;6.90;5.03;;;;;;;4.84;100.00;95552.56;6298294;22;20170;-78
2023/01/24 04:47:27;;;;;;;8.90;5.37;;;;;;;4.88;100.00;95563.31;6299960;22;20213;-80
2023/01/24 04:49:54;;;;;;;7.97;5.50;;;;;;;4.73;100.00;95560.63;6297163;22;20175;-71
2023/01/24 04:52:20;;;;;;;7.33;5.03;;;;;;;4.66;100.00;95561.38;6297228;22;20250;-71
2023/01/24 04:54:49;;;;;;;6.70;5.17;;;;;;;4.61;100.00;95569.59;6299381;22;20193;-71
2023/01/24 04:57:15;;;;;;;6.53;4.80;;;;;;;4.64;100.00;95560.75;6298076;22;20207;-72
2023/01/24 04:59:42;;;;;;;6.50;4.73;;;;;;;4.53;100.00;95554.16;6298006;22;20178;-72
2023/01/24 05:02:09;;;;;;;9.00;4.90;;;;;;;4.55;100.00;95567.66;6299826;22;20169;-71
2023/01/24 05:04:36;;;;;;;6.33;4.93;;;;;;;4.56;100.00;95567.50;6297654;22;20173;-71
2023/01/24 05:07:04;;;;;;;7.80;4.80;;;;;;;4.57;100.00;95566.53;6297261;22;20238;-71
2023/01/24 05:09:31;;;;;;;7.33;4.80;;;;;;;4.64;100.00;95576.19;6299395;22;20177;-71
2023/01/24 05:12:00;;;;;;;7.07;4.60;;;;;;;4.61;100.00;95572.19;6298106;22;20174;-71
2023/01/24 05:14:27;;;;;;;10.23;4.73;;;;;;;4.50;100.00;95560.41;6297414;22;20183;-71
2023/01/24 05:16:53;;;;;;;7.50;5.20;;;;;;;4.61;100.00;95579.09;6298974;22;20262;-70
2023/01/24 05:19:21;;;;;;;7.87;5.77;;;;;;;4.62;100.00;95581.50;6297604;22;20165;-70
2023/01/24 05:21:47;;;;;;;8.07;5.57;;;;;;;4.63;100.00;95587.44;6297477;22;20690;-74
2023/01/24 05:24:14;;;;;;;7.00;5.10;;;;;;;4.61;100.00;95589.38;6299522;22;20182;-74
2023/01/24 05:26:41;;;;;;;7.97;5.43;;;;;;;4.56;100.00;95600.94;6297204;22;20169;-74
2023/01/24 05:29:09;;;;;;;8.17;5.47;;;;;;;4.55;100.00;95608.84;6297601;22;20177;-75
2023/01/24 05:31:36;;;;;;;7.33;5.50;;;;;;;4.59;100.00;95610.94;6299263;22;20619;-74
2023/01/24 05:34:05;;;;;;;10.00;5.23;;;;;;;4.62;100.00;95621.91;6296719;22;20247;-74
2023/01/24 05:36:32;;;;;;;7.57;5.70;;;;;;;4.59;100.00;95622.97;6296348;22;20251;-75
2023/01/24 05:38:58;;;;;;;7.63;5.40;;;;;;;4.64;100.00;95619.97;6297565;22;20173;-75
2023/01/24 05:41:25;;;;;;;7.77;5.33;;;;;;;4.60;100.00;95622.03;6295940;22;20169;-75
2023/01/24 05:43:52;;;;;;;7.50;5.30;;;;;;;4.70;100.00;95621.91;6296459;22;20805;-75
2023/01/24 05:46:21;;;;;;;9.67;5.43;;;;;;;4.70;100.00;95625.28;6298295;22;20618;-75
2023/01/24 05:48:49;;;;;;;6.77;5.10;;;;;;;4.68;100.00;95622.03;6296611;22;20172;-76
2023/01/24 05:51:18;;;;;;;8.90;5.27;;;;;;;4.57;100.00;95632.63;6297977;22;20311;-76
2023/01/24 05:53:45;;;;;;;9.10;5.20;;;;;;;4.55;100.00;95635.38;6299970;22;20247;-76
2023/01/24 05:56:14;;;;;;;7.53;5.03;;;;;;;4.63;100.00;95633.78;6297253;22;20197;-74
2023/01/24 05:58:43;;;;;;;7.67;4.83;;;;;;;4.65;100.00;95642.94;6297488;22;20494;-75
2023/01/24 06:01:10;;;;;;;7.43;5.43;;;;;;;4.64;100.00;95643.13;6299253;22;20861;-75
2023/01/24 06:03:40;;;;;;;7.40;5.17;;;;;;;4.53;100.00;95644.22;6297544;22;20181;-75
2023/01/24 06:06:08;;;;;;;7.90;5.50;;;;;;;4.50;100.00;95644.53;6297817;22;20165;-75
2023/01/24 06:08:35;;;;;;;7.40;5.30;;;;;;;4.67;100.00;95647.97;6295585;22;20243;-75
2023/01/24 06:11:04;;;;;;;7.97;5.80;;;;;;;4.60;100.00;95652.91;6296615;22;20166;-74
2023/01/24 06:13:31;;;;;;;9.80;5.80;;;;;;;4.65;100.00;95649.91;6295763;22;20170;-74
2023/01/24 06:16:03;;;;;;;8.87;6.07;;;;;;;4.65;100.00;95652.47;6299567;22;20256;-73
2023/01/24 06:18:30;;;;;;;9.67;6.37;;;;;;;4.70;100.00;95652.81;6298399;22;20215;-73
2023/01/24 06:20:59;;;;;;;11.63;6.67;;;;;;;4.74;100.00;95652.31;6298173;22;20170;-74
2023/01/24 06:23:28;;;;;;;8.17;5.87;;;;;;;4.74;100.00;95651.50;6299910;22;20682;-74
2023/01/24 06:25:55;;;;;;;9.67;6.70;;;;;;;4.70;100.00;95661.34;6299850;22;20631;-74
2023/01/24 06:28:23;;;;;;;9.23;6.43;;;;;;;4.58;100.00;95653.09;6298823;22;20538;-74
2023/01/24 06:31:00;;;;;;;10.40;6.63;;;;;;;4.58;100.00;95660.81;6299591;22;20187;-74
2023/01/24 06:33:38;;;;;;;9.37;6.00;;;;;;;4.58;100.00;95671.09;6300264;22;20488;-74
2023/01/24 06:36:30;;;;;;;9.47;7.03;;;;;;;4.61;100.00;95677.72;6298722;22;20280;-73
2023/01/24 06:38:58;;;;;;;9.20;5.90;;;;;;;4.55;100.00;95686.88;6297319;22;20640;-73
2023/01/24 06:41:25;;;;;;;9.50;5.80;;;;;;;4.45;100.00;95682.78;6301168;22;20168;-73
2023/01/24 06:43:52;;;;;;;8.03;5.83;;;;;;;4.35;100.00;95682.91;6298417;22;20173;-74
2023/01/24 06:46:19;;;;;;;8.60;5.90;;;;;;;4.21;100.00;95682.69;6298060;22;20223;-74
2023/01/24 06:48:47;;;;;;;7.43;5.57;;;;;;;4.15;100.00;95688.44;6299781;22;20173;-74
2023/01/24 06:51:14;;;;;;;8.60;5.83;;;;;;;4.14;100.00;95686.81;6298103;22;20172;-75
2023/01/24 06:53:43;;;;;;;10.80;5.90;;;;;;;4.24;100.00;95684.97;6297858;22;21073;-76
2023/01/24 06:56:10;;;;;;;9.97;5.73;;;;;;;4.25;100.00;95677.06;6300636;22;20197;-75
2023/01/24 06:58:37;;;;;;;8.50;6.00;;;;;;;4.22;100.00;95685.09;6297684;22;20253;-75
2023/01/24 07:01:04;;;;;;;8.80;6.03;;;;;;;4.12;100.00;95683.59;6297671;22;20161;-75
2023/01/24 07:03:31;;;;;;;9.93;6.27;;;;;;;4.12;100.00;95688.75;6299417;22;20514;-73
2023/01/24 07:05:58;;;;;;;8.23;5.63;;;;;;;3.91;100.00;95697.63;6297416;22;20239;-74
2023/01/24 07:08:25;;;;;;;10.07;5.90;;;;;;;3.91;100.00;95689.91;6297983;22;20165;-73
2023/01/24 07:10:53;;;;;;;8.30;5.47;;;;;;;3.86;100.00;95692.13;6300304;22;20169;-74
2023/01/24 07:13:20;;;;;;;10.00;5.93;;;;;;;3.77;100.00;95692.22;6298415;22;20171;-74
2023/01/24 07:15:47;;;;;;;9.53;5.83;;;;;;;3.76;100.00;95696.56;6298763;22;20200;-75
2023/01/24 07:18:18;;;;;;;12.20;5.70;;;;;;;3.79;100.00;95698.00;6299854;22;20204;-70
2023/01/24 07:20:45;;;;;;;9.17;5.97;;;;;;;3.90;100.00;95708.03;6297817;22;20156;-70
2023/01/24 07:23:21;;;;;;;8.40;5.90;;;;;;;3.90;100.00;95703.72;6298748;22;20234;-73
2023/01/24 07:25:48;;;;;;;9.47;6.10;;;;;;;3.80;100.00;95702.22;6299254;22;20156;-74
2023/01/24 07:28:17;;;;;;;10.10;6.30;;;;;;;3.86;100.00;95704.19;6299118;22;20218;-73
2023/01/24 07:30:45;;;;;;;8.87;6.23;;;;;;;3.77;100.00;95705.88;6298088;22;20267;-74
2023/01/24 07:33:13;;;;;;;9.93;6.70;;;;;;;3.79;100.00;95696.25;6299673;22;20172;-76
2023/01/24 07:35:40;;;;;;;8.73;5.93;;;;;;;3.86;100.00;95712.72;6299271;22;21085;-74
2023/01/24 07:38:06;;;;;;;9.37;6.83;;;;;;;3.86;100.00;95709.31;6297412;22;20203;-74
2023/01/24 07:40:33;;;;;;;9.97;6.10;;;;;;;3.74;100.00;95693.34;6299297;22;20173;-77
2023/01/24 07:43:01;;;;;;;9.77;6.50;;;;;;;3.90;100.00;95719.16;6299276;22;20172;-80
2023/01/24 07:45:30;;;;;;;9.63;6.40;;;;;;;3.81;100.00;95720.03;6298461;22;20215;-73
2023/01/24 07:47:58;;;;;;;12.97;6.73;;;;;;;3.88;100.00;95718.50;6298835;22;20202;-73
2023/01/24 07:50:25;;;;;;;9.63;6.60;;;;;;;3.86;100.00;95724.75;6299475;22;20196;-74
2023/01/24 07:52:52;;;;;;;13.77;6.87;;;;;;;3.91;100.00;95727.66;6296981;22;20170;-73
2023/01/24 07:55:19;;;;;;;8.97;5.87;;;;;;;3.86;100.00;95730.69;6299066;22;20176;-73
2023/01/24 07:57:46;;;;;;;8.67;5.83;;;;;;;3.86;100.00;95735.03;6299213;22;20642;-73
2023/01/24 08:00:14;;;;;;;11.63;6.40;;;;;;;3.77;100.00;95739.31;6298164;22;20255;-73
2023/01/24 08:02:43;;;;;;;12.17;6.70;;;;;;;3.80;100.00;95738.19;6297967;22;20230;-73
2023/01/24 08:05:10;;;;;;;9.33;6.00;;;;;;;3.91;100.00;95745.66;6299317;22;20694;-73
2023/01/24 08:07:37;;;;;;;15.23;6.40;;;;;;;3.94;100.00;95743.63;6297549;22;20209;-74
2023/01/24 08:10:05;;;;;;;11.30;6.57;;;;;;;4.02;100.00;95742.84;6298544;22;20632;-74
2023/01/24 08:12:32;;;;;;;9.30;6.13;;;;;;;3.99;100.00;95749.09;6299247;22;20168;-74
2023/01/24 08:14:59;;;;;;;10.60;5.73;;;;;;;3.92;100.00;95737.81;6297054;22;20180;-74
2023/01/24 08:17:25;;;;;;;8.27;5.70;;;;;;;3.89;100.00;95750.16;6297539;22;20260;-74
2023/01/24 08:19:54;;;;;;;9.43;5.83;;;;;;;3.89;100.00;95739.88;6299176;22;20173;-74
2023/01/24 08:22:21;;;;;;;11.60;6.17;;;;;;;3.76;100.00;95753.09;6297280;22;20200;-74
2023/01/24 08:24:48;;;;;;;10.27;6.20;;;;;;;3.82;100.00;95742.22;6296486;22;20168;-74
2023/01/24 08:27:15;;;;;;;7.93;5.20;;;;;;;3.85;100.00;95726.50;6299941;22;20560;-81
2023/01/24 08:29:42;;;;;;;9.00;5.73;;;;;;;3.90;100.00;95741.47;6297766;22;20169;-74
2023/01/24 08:32:09;;;;;;;8.93;5.80;;;;;;;3.96;100.00;95743.44;6297951;22;20278;-74
2023/01/24 08:34:35;;;;;;;8.90;5.87;;;;;;;3.93;100.00;95746.31;6299903;22;20179;-74
2023/01/24 08:37:03;;;;;;;10.00;5.87;;;;;;;4.04;100.00;95745.28;6296923;22;20237;-75
2023/01/24 08:39:30;;;;;;;10.63;6.10;;;;;;;4.04;100.00;95747.84;6297801;22;20168;-72
2023/01/24 08:41:57;;;;;;;8.43;5.23;;;;;;;3.95;100.00;95742.63;6300076;22;20229;-74
2023/01/24 08:44:24;;;;;;;9.23;6.27;;;;;;;3.92;100.00;95744.72;6298385;22;20517;-75
2023/01/24 08:46:50;;;;;;;7.67;5.40;;;;;;;3.99;100.00;95743.97;6295725;22;20624;-74
2023/01/24 08:49:17;;;;;;;10.83;5.47;;;;;;;3.93;100.00;95752.28;6299205;22;20176;-74
2023/01/24 08:51:44;;;;;;;10.07;5.23;;;;;;;3.92;100.00;95753.25;6297710;22;20174;-74
2023/01/24 08:54:13;;;;;;;10.77;5.80;;;;;;;3.84;100.00;95753.16;6301831;22;20631;-75
2023/01/24 08:56:39;;;;;;;12.50;5.67;;;;;;;3.92;100.00;95748.09;6304144;22;20195;-73
2023/01/24 08:59:06;;;;;;;6.70;5.40;;;;;;;3.96;100.00;95753.72;6303389;22;20171;-73
2023/01/24 09:01:33;;;;;;;8.10;5.40;;;;;;;4.11;100.00;95752.22;6298861;22;20173;-73
2023/01/24 09:04:00;;;;;;;10.03;6.07;;;;;;;4.26;100.00;95748.16;6303237;22;20166;-73
2023/01/24 09:06:28;;;;;;;10.00;6.30;;;;;;;4.36;100.00;95748.03;6299909;22;20662;-74
2023/01/24 09:08:55;;;;;;;8.43;6.27;;;;;;;4.36;100.00;95748.84;6303178;22;20252;-73
2023/01/24 09:11:23;;;;;;;10.30;6.63;;;;;;;4.45;100.00;95749.69;6301375;22;20173;-74
2023/01/24 09:13:50;;;;;;;9.10;5.70;;;;;;;4.52;100.00;95759.25;6303930;22;20169;-73
2023/01/24 09:16:17;;;;;;;10.30;6.30;;;;;;;4.57;100.00;95754.44;6303088;22;20318;-73
2023/01/24 09:18:43;;;;;;;9.63;6.43;;;;;;;4.65;100.00;95747.72;6304015;22;20208;-73
2023/01/24 09:21:10;;;;;;;12.70;6.20;;;;;;;4.68;100.00;95750.75;6303419;22;20224;-72
2023/01/24 09:23:37;;;;;;;8.77;5.53;;;;;;;4.71;100.00;95750.47;6303911;22;20506;-72
2023/01/24 09:26:05;;;;;;;8.30;5.83;;;;;;;4.74;100.00;95755.31;6300634;22;20166;-72
2023/01/24 09:28:34;;;;;;;8.70;5.90;;;;;;;4.79;100.00;95752.28;6302848;22;20177;-73
2023/01/24 09:31:00;;;;;;;8.70;5.60;;;;;;;4.76;100.00;95755.16;6303032;22;20231;-72
2023/01/24 09:33:27;;;;;;;7.87;5.83;;;;;;;4.69;100.00;95754.16;6300840;22;20170;-72
2023/01/24 09:35:56;;;;;;;9.57;6.20;;;;;;;4.71;100.00;95750.47;6303021;22;20165;-72
2023/01/24 09:38:24;;;;;;;6.93;5.47;;;;;;;4.65;100.00;95745.94;6304460;22;20167;-72
2023/01/24 09:41:06;;;;;;;7.63;5.40;;;;;;;4.62;100.00;95750.59;6304148;22;20253;-71
2023/01/24 09:43:43;;;;;;;9.53;6.17;;;;;;;4.65;100.00;95753.66;6303689;22;20486;-71
2023/01/24 09:46:25;;;;;;;8.97;6.27;;;;;;;4.67;100.00;95746.59;6303226;22;20151;-71
2023/01/24 09:49:03;;;;;;;8.17;6.10;;;;;;;4.70;100.00;95750.63;6303989;22;20166;-72
2023/01/24 09:51:32;;;;;;;9.33;6.37;;;;;;;4.76;100.00;95744.88;6305689;22;20617;-71
2023/01/24 09:54:02;;;;;;;9.07;5.80;;;;;;;4.82;100.00;95746.81;6305436;22;20174;-71
2023/01/24 09:56:34;;;;;;;9.30;6.23;;;;;;;4.80;100.00;95746.97;6306014;22;20212;-71
2023/01/24 09:59:16;;;;;;;9.57;6.13;;;;;;;4.70;100.00;95745.47;6305336;22;20240;-72
2023/01/24 10:01:44;;;;;;;10.50;6.20;;;;;;;4.87;100.00;95737.66;6305203;22;20155;-72
2023/01/24 10:04:17;;;;;;;10.70;5.70;;;;;;;4.92;100.00;95732.03;6305781;22;20533;-71
2023/01/24 10:07:00;;;;;;;7.17;5.13;;;;;;;4.95;100.00;95742.03;6306009;22;20223;-72
2023/01/24 10:09:36;;;;;;;7.03;4.77;;;;;;;5.02;100.00;95732.72;6306163;22;20159;-72
2023/01/24 10:12:19;;;;;;;8.17;5.20;;;;;;;5.04;100.00;95735.94;6305945;22;20155;-72
2023/01/24 10:14:58;;;;;;;6.97;5.37;;;;;;;4.99;100.00;95733.81;6305265;22;20154;-71
2023/01/24 10:17:50;;;;;;;9.00;5.20;;;;;;;5.01;100.00;95731.91;6305371;22;20193;-72
2023/01/24 10:20:30;;;;;;;6.83;5.17;;;;;;;4.99;100.00;95733.03;6306282;22;20161;-72
2023/01/24 10:23:04;;;;;;;9.53;5.57;;;;;;;4.90;100.00;95721.91;6305315;22;20161;-72
2023/01/24 10:25:42;;;;;;;8.53;6.40;;;;;;;4.83;100.00;95726.06;6305461;22;20164;-71
2023/01/24 10:28:17;;;;;;;8.80;5.03;;;;;;;4.86;100.00;95717.19;6305697;22;20159;-71
2023/01/24 10:30:53;;;;;;;6.10;4.60;;;;;;;4.89;100.00;95719.47;6304730;22;20644;-71
2023/01/24 10:33:21;;;;;;;9.73;4.93;;;;;;;5.01;100.00;95719.03;6304981;22;20606;-71
2023/01/24 10:35:57;;;;;;;8.00;5.13;;;;;;;4.96;100.00;95717.88;6305777;22;20171;-71
2023/01/24 10:38:24;;;;;;;7.53;4.50;;;;;;;4.95;100.00;95713.69;6305233;22;20227;-71
2023/01/24 10:40:53;;;;;;;6.70;4.30;;;;;;;4.94;100.00;95715.44;6305200;22;20821;-71
2023/01/24 10:43:25;;;;;;;6.73;4.10;;;;;;;4.89;100.00;95717.69;6304735;22;20183;-71
2023/01/24 10:46:05;;;;;;;4.97;3.90;;;;;;;4.98;100.00;95713.38;6305615;22;20200;-71
2023/01/24 10:48:41;;;;;;;4.77;3.73;;;;;;;4.93;100.00;95715.63;6305859;22;20201;-71
2023/01/24 10:51:14;;;;;;;5.43;3.97;;;;;;;4.94;100.00;95714.66;6305173;22;20555;-71
2023/01/24 10:53:41;;;;;;;6.50;4.10;;;;;;;4.94;100.00;95712.06;6304764;22;20647;-71
2023/01/24 10:56:08;;;;;;;5.83;3.90;;;;;;;5.00;100.00;95701.13;6301815;22;20191;-71
2023/01/24 10:58:37;;;;;;;6.57;3.70;;;;;;;5.09;100.00;95710.50;6302938;22;20171;-71
2023/01/24 11:01:09;;;;;;;5.20;3.37;;;;;;;5.00;100.00;95714.03;6300591;22;20166;-71
2023/01/24 11:03:40;;;;;;;5.53;3.80;;;;;;;5.04;100.00;95703.25;6304280;22;20237;-71
2023/01/24 11:06:23;;;;;;;6.17;4.30;;;;;;;4.99;100.00;95705.47;6304679;22;20157;-72
2023/01/24 11:08:55;;;;;;;6.80;3.60;;;;;;;5.06;100.00;95698.75;6305344;22;20160;-71
2023/01/24 11:11:24;;;;;;;7.17;4.20;;;;;;;5.06;100.00;95700.50;6300172;22;20315;-71
2023/01/24 11:13:56;;;;;;;7.27;4.33;;;;;;;5.01;100.00;95706.16;6303608;22;20224;-72
2023/01/24 11:16:29;;;;;;;11.50;5.83;;;;;;;4.71;100.00;95704.13;6304855;22;20716;-71
2023/01/24 11:18:59;;;;;;;13.73;6.30;;;;;;;4.76;100.00;95698.53;6304576;22;20608;-74
2023/01/24 11:21:27;;;;;;;16.97;7.23;;;;;;;4.70;100.00;95689.66;6305102;22;20191;-74
2023/01/24 11:24:08;;;;;;;8.43;4.53;;;;;;;4.70;100.00;95692.22;6304809;22;20228;-73
2023/01/24 11:26:38;;;;;;;12.13;5.60;;;;;;;4.68;100.00;95686.41;6304741;22;20159;-73
2023/01/24 11:29:06;;;;;;;7.17;4.20;;;;;;;4.65;100.00;95689.28;6302791;22;20610;-73
2023/01/24 11:31:39;;;;;;;5.17;3.77;;;;;;;4.80;100.00;95689.50;6304498;22;20199;-73
2023/01/24 11:34:29;;;;;;;5.70;3.90;;;;;;;4.84;100.00;95685.66;6304618;22;20160;-74
2023/01/24 11:37:11;;;;;;;6.50;3.93;;;;;;;4.85;100.00;95682.91;6305202;22;20187;-75
2023/01/24 11:39:45;;;;;;;8.63;4.57;;;;;;;4.80;100.00;95686.91;6304396;22;20213;-74
2023/01/24 11:42:21;;;;;;;8.50;4.40;;;;;;;4.83;100.00;95682.28;6304197;22;20162;-73
2023/01/24 11:45:06;;;;;;;6.23;4.00;;;;;;;4.92;100.00;95694.22;6303203;22;20241;-72
2023/01/24 11:47:42;;;;;;;6.03;3.97;;;;;;;4.87;100.00;95681.00;6303272;22;20178;-73
2023/01/24 11:50:35;;;;;;;5.07;3.83;;;;;;;4.97;100.00;95681.66;6305225;22;20173;-73
2023/01/24 11:53:28;;;;;;;4.70;3.40;;;;;;;4.92;100.00;95681.34;6303012;22;20181;-74
2023/01/24 11:56:06;;;;;;;6.63;3.80;;;;;;;4.78;100.00;95663.91;6293701;22;20167;-74
2023/01/24 11:58:49;;;;;;;5.00;3.60;;;;;;;4.79;100.00;95678.38;6304604;22;20252;-74
2023/01/24 12:01:22;;;;;;;6.13;3.90;;;;;;;4.73;100.00;95680.81;6303988;22;20169;-74
2023/01/24 12:04:15;;;;;;;6.83;4.13;;;;;;;4.77;100.00;95676.94;6304664;22;20203;-74
2023/01/24 12:06:49;;;;;;;7.10;3.33;;;;;;;4.72;100.00;95674.84;6305020;22;20180;-74
2023/01/24 12:09:20;;;;;;;6.60;3.90;;;;;;;4.83;100.00;95684.03;6304044;22;20158;-75
2023/01/24 12:12:08;;;;;;;5.37;4.07;;;;;;;4.78;100.00;95684.53;6304889;22;20215;-74
2023/01/24 12:15:02;;;;;;;6.60;3.87;;;;;;;4.81;100.00;95678.25;6303681;22;20519;-74
2023/01/24 12:17:46;;;;;;;5.57;3.70;;;;;;;4.71;100.00;95683.53;6304549;22;20194;-73
2023/01/24 12:20:32;;;;;;;5.23;3.70;;;;;;;4.61;100.00;95682.06;6304831;22;20159;-73
2023/01/24 12:23:05;;;;;;;3.80;3.00;;;;;;;4.50;100.00;95681.34;6304233;22;20314;-74